Latest Weather Observations for Wudinna Airport

IDS60801

Issued at 2:21 pm CST Wednesday 19 June 2019 (issued every 10 minutes, with the page automatically refreshed every 10 minutes)

About weather observations | Map of weather stations | Latest weather observations for SA | Other Formats
Station Details ID: 018083 Name: WUDINNA AERO Lat: -33.04 Lon: 135.45 Height: 86.4 m
Data from the previous 72 hours. | See also: Recent months at Wudinna Airport
Date/Time
CST
Temp
°C
App
Temp
°C
Dew
Point
°C
Rel
Hum
%
Delta-T
°C
Wind Press
QNH
hPa
Press
MSL
hPa
Rain since
9am
mm
Dir  Spd
km/h
Gust
km/h
Spd
kts
Gust
kts
19/02:00pm 13.7 9.1 3.8 51 4.5 NW 17 20 9 11 1025.8 1025.9 0.0
19/01:30pm 13.9 9.0 4.2 52 4.4 WNW 19 22 10 12 1026.2 1026.3 0.0
19/01:00pm 13.6 8.8 4.5 54 4.2 NW 19 24 10 13 1026.6 1026.7 0.0
19/12:30pm 14.0 9.2 4.6 53 4.3 NW 19 24 10 13 1027.1 1027.2 0.0
19/12:00pm 13.6 9.0 5.7 59 3.7 NW 19 24 10 13 1027.6 1027.7 0.0
19/11:30am 13.2 9.2 6.8 65 3.1 NW 17 22 9 12 1028.1 1028.2 0.0
19/11:00am 12.9 9.0 6.9 67 2.9 NNW 17 22 9 12 1028.4 1028.5 0.0
19/10:30am 11.1 6.6 6.0 71 2.4 NNW 19 24 10 13 1028.5 1028.6 0.0
19/10:00am 10.7 7.8 6.3 74 2.1 N 11 19 6 10 1028.3 1028.4 0.0
19/09:30am 9.2 6.6 5.9 80 1.5 NNW 9 15 5 8 1028.4 1028.5 0.0
19/09:00am 8.0 5.9 6.0 87 0.9 WNW 6 9 3 5 1028.2 1028.3 0.2
19/08:30am 7.1 6.1 5.4 89 0.8 CALM 0 2 0 1 1027.8 1027.9 0.2
19/08:00am 6.8 5.3 5.1 89 0.8 WNW 2 6 1 3 1027.5 1027.6 0.2
19/07:30am 5.9 4.7 4.4 90 0.6 CALM 0 0 0 0 1027.3 1027.4 0.2
19/07:00am 6.8 3.9 4.8 87 0.9 NW 9 17 5 9 1027.1 1027.2 0.2
19/06:30am 5.4 3.0 4.5 94 0.4 NNE 6 9 3 5 1026.9 1027.0 0.2
19/06:00am 3.9 1.3 3.0 94 0.4 NNE 6 9 3 5 1026.7 1026.8 0.2
19/05:30am 2.9 -0.1 2.0 94 0.4 WNW 7 9 4 5 1026.6 1026.7 0.2
19/05:00am 2.9 1.2 2.0 94 0.4 CALM 0 0 0 0 1026.7 1026.8 0.2
19/04:30am 3.3 0.9 2.3 93 0.4 WNW 4 7 2 4 1026.5 1026.6 0.2
19/04:00am 4.0 2.5 3.0 93 0.4 CALM 0 0 0 0 1026.6 1026.7 0.2
19/03:30am 4.9 3.2 4.0 94 0.4 WNW 2 6 1 3 1026.7 1026.8 0.2
19/03:00am 4.8 2.1 3.8 93 0.4 SW 7 9 4 5 1026.7 1026.8 0.2
19/02:30am 5.7 4.5 4.7 93 0.4 CALM 0 0 0 0 1026.9 1027.0 0.2
19/02:00am 6.0 3.2 5.0 93 0.4 NE 9 9 5 5 1026.7 1026.8 0.2
19/01:30am 5.2 3.9 4.2 93 0.4 CALM 0 0 0 0 1026.8 1026.9 0.2
19/01:00am 4.7 3.3 3.7 93 0.4 CALM 0 0 0 0 1027.1 1027.2 0.2
19/12:30am 5.0 3.7 4.0 93 0.4 CALM 0 0 0 0 1027.2 1027.3 0.2
19/12:00am 4.5 2.7 3.5 93 0.4 NE 2 7 1 4 1027.3 1027.4 0.2
 
Date/Time
CST
Temp
°C
App
Temp
°C
Dew
Point
°C
Rel
Hum
%
Delta-T
°C
Wind Press
QNH
hPa
Press
MSL
hPa
Rain since
9am
mm
Dir  Spd
km/h
Gust
km/h
Spd
kts
Gust
kts
18/11:30pm 4.5 1.8 3.5 93 0.4 NE 7 9 4 5 1027.3 1027.4 0.2
18/11:00pm 4.5 2.3 3.3 92 0.5 NNE 4 9 2 5 1027.3 1027.4 0.2
18/10:30pm 4.6 2.8 3.3 91 0.5 NNE 2 6 1 3 1027.4 1027.5 0.2
18/10:00pm 5.6 4.4 4.4 92 0.5 CALM 0 0 0 0 1027.4 1027.5 0.0
18/09:30pm 6.1 4.9 4.6 90 0.6 CALM 0 7 0 4 1027.4 1027.5 0.0
18/09:00pm 6.8 5.7 5.1 89 0.7 CALM 0 0 0 0 1027.5 1027.6 0.0
18/08:30pm 7.4 5.2 5.5 88 0.8 SSE 6 9 3 5 1027.5 1027.6 0.0
18/08:00pm 8.5 6.0 6.6 88 0.9 NW 9 11 5 6 1027.4 1027.5 0.0
18/07:30pm 8.9 6.5 6.9 87 0.9 WNW 9 9 5 5 1027.3 1027.4 0.0
18/07:00pm 9.6 7.8 7.2 85 1.1 NNW 6 7 3 4 1027.1 1027.2 0.0
18/06:30pm 10.1 7.8 7.5 84 1.2 NE 9 11 5 6 1026.8 1026.9 0.0
18/06:00pm 10.2 7.8 7.1 81 1.5 SSE 9 13 5 7 1026.8 1026.9 0.0
18/05:30pm 11.4 9.0 6.9 74 2.1 E 9 17 5 9 1026.7 1026.8 0.0
18/05:00pm 11.9 9.2 5.8 66 2.9 ENE 9 11 5 6 1026.5 1026.6 0.0
18/04:30pm 12.7 10.2 4.7 58 3.7 SE 7 11 4 6 1026.4 1026.5 0.0
18/04:00pm 12.7 10.4 4.7 58 3.7 SSW 6 9 3 5 1026.2 1026.3 0.0
18/03:30pm 11.9 8.1 6.0 67 2.8 SSW 15 19 8 10 1026.2 1026.3 0.0
18/03:00pm 12.9 9.9 4.3 56 3.9 SW 9 15 5 8 1026.1 1026.2 0.0
18/02:30pm 13.4 10.6 5.3 58 3.8 W 9 13 5 7 1026.1 1026.2 0.0
18/02:00pm 13.3 10.0 6.4 63 3.3 W 13 17 7 9 1026.4 1026.5 0.0
18/01:30pm 12.6 9.8 5.1 60 3.5 SSE 9 13 5 7 1026.6 1026.7 0.0
18/01:00pm 11.7 6.2 6.0 68 2.7 SSE 24 32 13 17 1026.9 1027.0 0.0
18/12:30pm 12.6 9.4 5.1 60 3.5 SE 11 20 6 11 1027.1 1027.2 0.0
18/12:00pm 12.7 9.9 5.1 60 3.5 S 9 13 5 7 1027.5 1027.6 0.0
18/11:30am 12.4 9.8 6.2 66 2.9 S 9 13 5 7 1027.8 1027.9 0.0
18/11:00am 12.2 8.5 6.5 68 2.7 SW 15 20 8 11 1028.0 1028.1 0.0
18/10:30am 11.8 9.4 6.9 72 2.3 W 9 11 5 6 1027.9 1028.0 0.0
18/10:00am 10.8 8.8 6.2 73 2.2 WNW 6 9 3 5 1027.8 1027.9 0.0
18/09:30am 10.1 9.3 6.3 77 1.8 CALM 0 4 0 2 1027.5 1027.6 0.0
18/09:00am 9.0 7.0 7.1 88 0.9 WNW 7 9 4 5 1027.2 1027.3 3.8
18/08:30am 7.6 6.0 6.2 91 0.6 W 4 6 2 3 1026.9 1027.0 3.8
18/08:00am 6.5 4.6 5.1 91 0.6 W 4 7 2 4 1026.6 1026.7 3.8
18/07:30am 6.1 3.8 4.7 91 0.6 W 6 7 3 4 1025.9 1026.0 3.8
18/07:00am 5.5 2.9 4.2 91 0.6 W 7 9 4 5 1025.5 1025.6 3.8
18/06:30am 5.6 4.0 4.6 93 0.4 W 2 9 1 5 1025.0 1025.1 3.8
18/06:00am 5.1 2.6 3.8 91 0.5 WSW 6 7 3 4 1024.9 1025.0 3.8
18/05:30am 5.8 3.4 4.4 91 0.6 WSW 6 9 3 5 1024.6 1024.7 3.8
18/05:00am 6.2 3.7 5.0 92 0.5 WSW 7 9 4 5 1024.4 1024.5 3.8
18/04:30am 5.9 3.4 4.7 92 0.5 WSW 7 11 4 6 1024.4 1024.5 3.6
18/04:00am 6.1 3.8 4.7 91 0.6 SW 6 7 3 4 1024.2 1024.2 3.6
18/03:30am 6.5 4.6 5.1 91 0.6 SW 4 6 2 3 1024.2 1024.2 3.6
18/03:00am 6.7 3.5 5.0 89 0.7 W 11 13 6 7 1024.2 1024.2 3.6
18/02:30am 7.8 5.7 5.9 88 0.9 W 6 9 3 5 1023.9 1023.9 3.6
18/02:00am 8.4 5.5 6.5 88 0.9 WSW 11 13 6 7 1023.8 1023.8 3.6
18/01:30am 8.3 6.3 6.4 88 0.9 SSW 6 7 3 4 1023.7 1023.7 3.6
18/01:00am 9.1 5.2 7.1 87 0.9 SW 17 24 9 13 1023.6 1023.6 3.6
18/12:30am 9.7 6.9 8.6 93 0.5 WNW 13 15 7 8 1023.3 1023.3 3.6
18/12:00am 9.7 7.3 8.5 92 0.6 W 11 13 6 7 1023.4 1023.4 3.6
 
Date/Time
CST
Temp
°C
App
Temp
°C
Dew
Point
°C
Rel
Hum
%
Delta-T
°C
Wind Press
QNH
hPa
Press
MSL
hPa
Rain since
9am
mm
Dir  Spd
km/h
Gust
km/h
Spd
kts
Gust
kts
17/11:30pm 9.7 7.7 8.5 92 0.6 W 9 11 5 6 1023.2 1023.2 3.6
17/11:00pm 8.8 6.5 7.4 91 0.7 WSW 9 11 5 6 1023.1 1023.1 3.6
17/10:30pm 10.2 8.6 8.8 91 0.7 WSW 7 9 4 5 1023.0 1023.0 3.6
17/10:00pm 10.5 8.6 8.9 90 0.8 SW 9 11 5 6 1022.8 1022.8 3.6
17/09:30pm 11.2 8.7 9.6 90 0.8 SW 13 17 7 9 1022.5 1022.5 3.6
17/09:00pm 11.2 6.3 9.8 91 0.7 WSW 26 56 14 30 1022.6 1022.6 3.6
17/08:53pm 11.6 7.6 10.3 92 0.7 W 22 56 12 30 1022.3 1022.3 3.0
17/08:30pm 11.6 8.4 10.0 90 0.8 WSW 17 26 9 14 1022.2 1022.2 1.8
17/08:00pm 11.9 8.2 10.0 88 1.0 WNW 20 28 11 15 1021.8 1021.8 0.0
17/07:30pm 11.9 8.0 9.5 85 1.2 NW 20 26 11 14 1021.5 1021.5 0.0
17/07:00pm 11.4 7.9 8.8 84 1.3 NW 17 20 9 11 1021.2 1021.2 0.0
17/06:30pm 11.2 8.1 8.9 86 1.1 NW 15 17 8 9 1021.2 1021.2 0.0
17/06:00pm 10.9 7.8 8.7 86 1.1 NW 15 - 8 - - 1021.1 -
17/05:30pm 12.5 8.4 8.6 77 1.9 NW 20 26 11 14 1021.2 1021.2 0.0
17/05:00pm 13.7 9.3 7.5 66 3.1 WNW 20 30 11 16 1021.1 1021.1 0.0
17/04:30pm 14.1 8.5 7.2 63 3.4 WNW 26 37 14 20 1021.1 1021.1 0.0
17/04:00pm 14.5 9.4 7.5 63 3.5 NW 24 33 13 18 1021.0 1021.0 0.0
17/03:30pm 14.6 9.1 7.6 63 3.5 NW 26 33 14 18 1021.0 1021.0 0.0
17/03:00pm 14.6 8.7 7.4 62 3.5 WNW 28 37 15 20 1021.0 1021.0 0.0
17/02:30pm 14.4 8.0 7.0 61 3.6 NW 30 37 16 20 1021.2 1021.2 0.0
17/02:00pm 14.5 9.1 8.0 65 3.3 NW 26 33 14 18 1021.2 1021.2 0.0
17/01:30pm 14.5 8.7 7.8 64 3.3 NW 28 35 15 19 1021.4 1021.4 0.0
17/01:00pm 14.1 9.0 7.6 65 3.2 NW 24 33 13 18 1021.8 1021.8 0.0
17/12:30pm 14.4 10.1 7.7 64 3.3 NW 20 28 11 15 1022.0 1022.0 0.0
17/12:00pm 13.7 8.4 8.3 70 2.7 NW 26 33 14 18 1022.7 1022.7 0.0
17/11:30am 13.9 9.8 8.5 70 2.7 NW 20 24 11 13 1023.1 1023.1 0.0
17/11:00am 13.3 9.2 8.6 73 2.4 NW 20 26 11 14 1023.4 1023.4 0.0
17/10:30am 12.3 8.1 8.4 77 1.9 NNW 20 26 11 14 1023.6 1023.6 0.0
17/10:00am 12.0 8.1 8.5 79 1.7 NNW 19 24 10 13 1023.7 1023.7 0.0
17/09:30am 10.8 7.0 7.7 81 1.5 NNW 17 24 9 13 1023.6 1023.6 0.0
17/09:00am 9.5 5.3 7.4 87 1.0 NNW 19 24 10 13 1023.4 1023.4 1.0
17/08:30am 8.8 4.5 6.9 88 0.9 NNW 19 24 10 13 1023.3 1023.3 1.0
17/08:00am 8.3 3.4 6.8 90 0.7 NNW 22 28 12 15 1023.0 1023.0 1.0
17/07:30am 7.5 2.1 6.3 92 0.5 NNW 24 28 13 15 1022.9 1022.9 1.0
17/07:00am 7.5 2.8 6.0 90 0.7 NNW 20 24 11 13 1023.0 1023.0 1.0
17/06:30am 7.2 2.5 6.1 93 0.5 NNW 20 26 11 14 1022.9 1022.9 1.0
17/06:00am 7.2 2.1 6.1 93 0.5 NNW 22 28 12 15 1022.9 1022.9 1.0
17/05:30am 7.3 2.8 6.1 92 0.5 NNW 19 24 10 13 1022.8 1022.8 1.0
17/05:00am 7.9 3.3 6.7 92 0.6 NNW 20 26 11 14 1022.6 1022.6 1.0
17/04:30am 8.4 3.9 7.0 91 0.7 NNW 20 26 11 14 1022.5 1022.5 1.0
17/04:00am 8.4 4.5 7.0 91 0.7 NNW 17 24 9 13 1022.6 1022.6 1.0
17/03:30am 8.7 4.8 7.2 90 0.7 NNW 17 22 9 12 1022.9 1022.9 1.0
17/03:00am 8.9 4.7 7.4 90 0.7 NNW 19 22 10 12 1023.0 1023.0 1.0
17/02:30am 8.9 5.0 7.2 89 0.8 NNW 17 20 9 11 1023.3 1023.3 1.0
17/02:00am 9.1 5.6 7.4 89 0.8 NNW 15 19 8 10 1023.4 1023.4 1.0
17/01:30am 8.9 5.5 7.7 92 0.6 NNW 15 19 8 10 1023.5 1023.5 0.8
17/01:00am 7.8 4.5 6.4 91 0.6 NW 13 17 7 9 1023.6 1023.6 0.8
17/12:30am 8.8 7.1 7.4 91 0.7 N 6 9 3 5 1023.8 1023.8 0.8
17/12:00am 8.4 6.4 6.9 90 0.7 NNW 7 11 4 6 1024.1 1024.1 0.8
 
Date/Time
CST
Temp
°C
App
Temp
°C
Dew
Point
°C
Rel
Hum
%
Delta-T
°C
Wind Press
QNH
hPa
Press
MSL
hPa
Rain since
9am
mm
Dir  Spd
km/h
Gust
km/h
Spd
kts
Gust
kts
16/11:30pm 8.6 5.8 6.9 89 0.8 NNW 11 15 6 8 1024.3 1024.4 0.8
16/11:00pm 9.3 6.8 8.2 93 0.5 NNW 11 17 6 9 1024.4 1024.5 0.8
16/10:30pm 8.1 5.7 7.0 93 0.5 NE 9 11 5 6 1024.2 1024.2 0.8
16/10:00pm 7.6 6.8 6.4 92 0.6 CALM 0 0 0 0 1024.1 1024.1 0.8
16/09:30pm 7.6 6.8 6.4 92 0.5 CALM 0 0 0 0 1024.0 1024.0 0.8
16/09:00pm 7.7 6.9 6.5 92 0.5 CALM 0 0 0 0 1024.0 1024.0 0.8
16/08:30pm 8.2 6.3 6.7 90 0.7 NE 6 9 3 5 1023.8 1023.8 0.8
16/08:00pm 8.6 7.9 7.1 90 0.7 CALM 0 0 0 0 1023.7 1023.7 0.8
16/07:30pm 9.3 7.4 7.4 88 0.9 SSE 7 9 4 5 1023.5 1023.5 0.8
16/07:00pm 11.0 10.0 8.8 86 1.1 SSE 4 6 2 3 1023.2 1023.2 0.8
16/06:30pm 12.1 9.9 9.3 83 1.4 SSE 11 15 6 8 1022.8 1022.8 0.8
16/06:00pm 12.6 9.6 9.2 80 1.7 S 15 22 8 12 1022.6 1022.6 0.8
16/05:30pm 12.8 10.9 9.1 78 1.9 WSW 9 11 5 6 1022.5 1022.5 0.8
16/05:00pm 13.5 9.8 9.4 76 2.1 SW 19 26 10 14 1022.3 1022.3 0.8
16/04:30pm 14.4 11.8 9.2 71 2.7 WSW 13 17 7 9 1021.9 1021.9 0.8
16/04:00pm 14.3 11.3 9.1 71 2.7 WSW 15 19 8 10 1021.8 1021.8 0.8
16/03:30pm 14.7 11.4 9.5 71 2.7 WSW 17 22 9 12 1021.6 1021.6 0.8
16/03:00pm 14.2 9.7 10.0 76 2.2 SSW 24 33 13 18 1021.6 1021.6 0.8
16/02:30pm 15.3 11.9 9.0 66 3.2 WSW 17 32 9 17 1021.3 1021.3 0.8

Other formats

Comma delimited format used in spreadsheet applications
http://www.bom.gov.au/fwo/IDS60801/IDS60801.95654.axf

JavaScript Object Notation format (JSON) in row-major order
http://www.bom.gov.au/fwo/IDS60801/IDS60801.95654.json

Data quality

Most of these data are generated automatically and are frequently updated. Quality checks on data are not normally performed. It is possible for incorrect values to appear. Refer to information at About Latest Weather Observations and please check the disclaimer before using these data.